AFL149 UWKD-UWPS
Flight info
| Callsign | AFL149 |
|---|---|
| Flight time | 0h 35m |
| Altitude | 28000 |
| Route | APTAR1G APTAR DCT OTPIS P165 DOGIT T766 UGLAD UGLAD2K |
| Aircraft | A20N/M-SDE2E3FGHIRWXY/LB1 |
Departure
| Time | 2026-04-26 09:57 |
|---|---|
| Airport | Kazan International Airport (UWKD) |
Arrival
| Time | 2026-04-26 10:32 |
|---|---|
| Airport | Saransk International Airport (UWPS) |
| Time | Latitude | Longitude | Altitude | Speed | Heading |
|---|---|---|---|---|---|
| 2026-04-26 09:18 | 55.60811 | 49.29695 | 408 ft | 0 kts | 34° |
| 2026-04-26 09:46 | 55.60807 | 49.29690 | 410 ft | 1 kts | 24° |
| 2026-04-26 09:46 | 55.60802 | 49.29686 | 407 ft | 3 kts | 24° |
| 2026-04-26 09:46 | 55.60784 | 49.29672 | 407 ft | 3 kts | 24° |
| 2026-04-26 09:46 | 55.60767 | 49.29658 | 406 ft | 3 kts | 24° |
| 2026-04-26 09:47 | 55.60751 | 49.29645 | 408 ft | 3 kts | 24° |
| 2026-04-26 09:47 | 55.60734 | 49.29632 | 404 ft | 3 kts | 24° |
| 2026-04-26 09:47 | 55.60718 | 49.29619 | 405 ft | 2 kts | 24° |
| 2026-04-26 09:47 | 55.60708 | 49.29611 | 406 ft | 0 kts | 24° |
| 2026-04-26 09:49 | 55.60733 | 49.29625 | 409 ft | 8 kts | 8° |
| 2026-04-26 09:49 | 55.60769 | 49.29590 | 404 ft | 4 kts | 306° |
| 2026-04-26 09:49 | 55.60804 | 49.29505 | 410 ft | 13 kts | 304° |
| 2026-04-26 09:50 | 55.60779 | 49.29382 | 410 ft | 17 kts | 214° |
| 2026-04-26 09:50 | 55.60627 | 49.29203 | 410 ft | 30 kts | 216° |
| 2026-04-26 09:50 | 55.60582 | 49.28895 | 410 ft | 27 kts | 274° |
| 2026-04-26 09:50 | 55.60612 | 49.28567 | 410 ft | 27 kts | 298° |
| 2026-04-26 09:51 | 55.60729 | 49.28263 | 410 ft | 39 kts | 304° |
| 2026-04-26 09:51 | 55.60898 | 49.27821 | 410 ft | 45 kts | 303° |
| 2026-04-26 09:51 | 55.61077 | 49.27364 | 410 ft | 45 kts | 305° |
| 2026-04-26 09:51 | 55.61207 | 49.27030 | 410 ft | 28 kts | 304° |
| 2026-04-26 09:52 | 55.61323 | 49.26728 | 405 ft | 35 kts | 304° |
| 2026-04-26 09:52 | 55.61663 | 49.25849 | 410 ft | 32 kts | 304° |
| 2026-04-26 09:52 | 55.61784 | 49.25543 | 406 ft | 24 kts | 305° |
| 2026-04-26 09:53 | 55.61849 | 49.25356 | 410 ft | 12 kts | 280° |
| 2026-04-26 09:53 | 55.61823 | 49.25257 | 409 ft | 8 kts | 213° |
| 2026-04-26 09:53 | 55.61803 | 49.25233 | 409 ft | 0 kts | 213° |
| 2026-04-26 09:55 | 55.61762 | 49.25186 | 408 ft | 17 kts | 214° |
| 2026-04-26 09:55 | 55.61677 | 49.25158 | 407 ft | 7 kts | 152° |
| 2026-04-26 09:56 | 55.61665 | 49.25183 | 408 ft | 0 kts | 127° |
| 2026-04-26 09:56 | 55.61665 | 49.25184 | 408 ft | 1 kts | 126° |
| 2026-04-26 09:56 | 55.61614 | 49.25323 | 408 ft | 44 kts | 123° |
| 2026-04-26 09:56 | 55.61247 | 49.26259 | 409 ft | 143 kts | 124° |
| 2026-04-26 09:57 | 55.60570 | 49.28062 | 656 ft | 196 kts | 124° |
| 2026-04-26 09:57 | 55.59809 | 49.30036 | 1746 ft | 195 kts | 129° |
| 2026-04-26 09:57 | 55.58827 | 49.31673 | 2951 ft | 197 kts | 161° |
| 2026-04-26 09:57 | 55.57413 | 49.31805 | 3657 ft | 221 kts | 199° |
| 2026-04-26 09:58 | 55.56133 | 49.30154 | 3893 ft | 240 kts | 233° |
| 2026-04-26 09:58 | 55.55652 | 49.27339 | 3813 ft | 248 kts | 269° |
| 2026-04-26 09:58 | 55.56125 | 49.24371 | 3805 ft | 256 kts | 290° |
| 2026-04-26 09:58 | 55.56930 | 49.21550 | 3800 ft | 258 kts | 293° |
| 2026-04-26 09:59 | 55.57514 | 49.18655 | 3803 ft | 250 kts | 272° |
| 2026-04-26 09:59 | 55.57517 | 49.16594 | 3886 ft | 249 kts | 261° |
| 2026-04-26 09:59 | 55.56982 | 49.12558 | 4825 ft | 260 kts | 249° |
| 2026-04-26 09:59 | 55.56365 | 49.09596 | 6274 ft | 253 kts | 247° |
| 2026-04-26 10:00 | 55.55715 | 49.06717 | 7631 ft | 252 kts | 246° |
| 2026-04-26 10:00 | 55.55066 | 49.03816 | 8890 ft | 256 kts | 247° |
| 2026-04-26 10:00 | 55.54429 | 49.00856 | 10126 ft | 262 kts | 248° |
| 2026-04-26 10:00 | 55.53780 | 48.97707 | 10854 ft | 284 kts | 249° |
| 2026-04-26 10:01 | 55.53105 | 48.94311 | 11706 ft | 299 kts | 250° |
| 2026-04-26 10:01 | 55.52425 | 48.90800 | 12880 ft | 305 kts | 251° |
| 2026-04-26 10:01 | 55.51739 | 48.87221 | 14053 ft | 309 kts | 252° |
| 2026-04-26 10:01 | 55.51048 | 48.83608 | 15124 ft | 313 kts | 252° |
| 2026-04-26 10:02 | 55.50344 | 48.79944 | 16157 ft | 317 kts | 252° |
| 2026-04-26 10:02 | 55.49625 | 48.76224 | 17172 ft | 321 kts | 252° |
| 2026-04-26 10:02 | 55.48899 | 48.72482 | 18163 ft | 325 kts | 252° |
| 2026-04-26 10:02 | 55.48161 | 48.68689 | 19060 ft | 329 kts | 252° |
| 2026-04-26 10:03 | 55.47422 | 48.64907 | 19905 ft | 332 kts | 252° |
| 2026-04-26 10:03 | 55.46660 | 48.61017 | 20811 ft | 336 kts | 252° |
| 2026-04-26 10:03 | 55.45893 | 48.57111 | 21696 ft | 339 kts | 252° |
| 2026-04-26 10:03 | 55.44985 | 48.53259 | 22539 ft | 344 kts | 245° |
| 2026-04-26 10:04 | 55.43768 | 48.49589 | 23346 ft | 349 kts | 240° |
| 2026-04-26 10:04 | 55.42388 | 48.46030 | 23995 ft | 354 kts | 238° |
| 2026-04-26 10:04 | 55.40924 | 48.42513 | 24633 ft | 358 kts | 237° |
| 2026-04-26 10:04 | 55.39426 | 48.38983 | 25267 ft | 361 kts | 237° |
| 2026-04-26 10:05 | 55.37914 | 48.35407 | 25715 ft | 366 kts | 237° |
| 2026-04-26 10:05 | 55.36921 | 48.33036 | 25725 ft | 364 kts | 237° |
| 2026-04-26 10:05 | 55.35426 | 48.29432 | 25626 ft | 364 kts | 238° |
| 2026-04-26 10:05 | 55.33940 | 48.25808 | 25890 ft | 367 kts | 238° |
| 2026-04-26 10:06 | 55.32447 | 48.22145 | 26482 ft | 368 kts | 238° |
| 2026-04-26 10:06 | 55.30960 | 48.18492 | 26739 ft | 367 kts | 237° |
| 2026-04-26 10:06 | 55.29456 | 48.14860 | 26775 ft | 367 kts | 236° |
| 2026-04-26 10:06 | 55.27937 | 48.11235 | 26774 ft | 369 kts | 236° |
| 2026-04-26 10:07 | 55.26436 | 48.07650 | 26768 ft | 369 kts | 236° |
| 2026-04-26 10:07 | 55.24923 | 48.04015 | 26772 ft | 369 kts | 236° |
| 2026-04-26 10:07 | 55.23413 | 48.00369 | 26758 ft | 369 kts | 237° |
| 2026-04-26 10:07 | 55.21911 | 47.96729 | 26764 ft | 369 kts | 237° |
| 2026-04-26 10:08 | 55.20390 | 47.93034 | 26751 ft | 380 kts | 237° |
| 2026-04-26 10:08 | 55.18812 | 47.89191 | 26766 ft | 397 kts | 237° |
| 2026-04-26 10:08 | 55.17163 | 47.85180 | 26746 ft | 413 kts | 236° |
| 2026-04-26 10:08 | 55.15451 | 47.81026 | 26757 ft | 426 kts | 236° |
| 2026-04-26 10:09 | 55.13699 | 47.76789 | 26760 ft | 429 kts | 236° |
| 2026-04-26 10:09 | 55.11970 | 47.72622 | 26763 ft | 429 kts | 236° |
| 2026-04-26 10:09 | 55.10213 | 47.68398 | 26763 ft | 429 kts | 236° |
| 2026-04-26 10:09 | 55.08459 | 47.64187 | 26762 ft | 429 kts | 236° |
| 2026-04-26 10:10 | 55.06701 | 47.59973 | 26761 ft | 429 kts | 236° |
| 2026-04-26 10:10 | 55.04949 | 47.55781 | 26764 ft | 429 kts | 236° |
| 2026-04-26 10:10 | 55.03186 | 47.51568 | 26757 ft | 429 kts | 236° |
| 2026-04-26 10:10 | 55.01419 | 47.47349 | 26757 ft | 431 kts | 236° |
| 2026-04-26 10:11 | 54.99651 | 47.43137 | 26760 ft | 431 kts | 236° |
| 2026-04-26 10:11 | 54.97875 | 47.38912 | 26759 ft | 431 kts | 236° |
| 2026-04-26 10:11 | 54.96100 | 47.34697 | 26755 ft | 431 kts | 236° |
| 2026-04-26 10:11 | 54.94344 | 47.30535 | 26754 ft | 431 kts | 236° |
| 2026-04-26 10:12 | 54.92567 | 47.26332 | 26753 ft | 431 kts | 236° |
| 2026-04-26 10:12 | 54.90804 | 47.22170 | 26757 ft | 422 kts | 236° |
| 2026-04-26 10:12 | 54.89072 | 47.18094 | 26756 ft | 415 kts | 236° |
| 2026-04-26 10:12 | 54.87382 | 47.14125 | 26757 ft | 404 kts | 236° |
| 2026-04-26 10:13 | 54.85720 | 47.10226 | 26761 ft | 400 kts | 236° |
| 2026-04-26 10:13 | 54.84058 | 47.06364 | 26761 ft | 399 kts | 234° |
| 2026-04-26 10:13 | 54.81985 | 47.03144 | 26754 ft | 406 kts | 215° |
| 2026-04-26 10:13 | 54.79363 | 47.01330 | 26756 ft | 418 kts | 197° |
| 2026-04-26 10:14 | 54.76429 | 47.00887 | 26749 ft | 428 kts | 187° |
| 2026-04-26 10:14 | 54.73486 | 47.00408 | 26749 ft | 422 kts | 197° |
| 2026-04-26 10:14 | 54.70703 | 46.98925 | 26764 ft | 415 kts | 207° |
| 2026-04-26 10:14 | 54.68186 | 46.96596 | 26672 ft | 406 kts | 217° |
| 2026-04-26 10:15 | 54.66020 | 46.93552 | 25937 ft | 396 kts | 229° |
| 2026-04-26 10:15 | 54.64399 | 46.89727 | 24867 ft | 397 kts | 241° |
| 2026-04-26 10:15 | 54.63198 | 46.85488 | 23860 ft | 399 kts | 247° |
| 2026-04-26 10:15 | 54.62165 | 46.81029 | 22718 ft | 402 kts | 248° |
| 2026-04-26 10:16 | 54.61159 | 46.76485 | 21288 ft | 408 kts | 248° |
| 2026-04-26 10:16 | 54.60123 | 46.71884 | 19746 ft | 415 kts | 247° |
| 2026-04-26 10:16 | 54.59038 | 46.67256 | 19023 ft | 410 kts | 246° |
| 2026-04-26 10:16 | 54.57966 | 46.62773 | 18658 ft | 395 kts | 246° |
| 2026-04-26 10:17 | 54.56943 | 46.58476 | 18305 ft | 378 kts | 245° |
| 2026-04-26 10:17 | 54.55797 | 46.54505 | 17946 ft | 362 kts | 240° |
| 2026-04-26 10:17 | 54.54614 | 46.50830 | 17548 ft | 349 kts | 239° |
| 2026-04-26 10:17 | 54.53420 | 46.47265 | 17149 ft | 336 kts | 238° |
| 2026-04-26 10:18 | 54.52259 | 46.43847 | 16756 ft | 325 kts | 238° |
| 2026-04-26 10:18 | 54.51135 | 46.40542 | 16356 ft | 315 kts | 238° |
| 2026-04-26 10:18 | 54.50040 | 46.37305 | 15875 ft | 310 kts | 238° |
| 2026-04-26 10:18 | 54.48966 | 46.34108 | 15363 ft | 306 kts | 238° |
| 2026-04-26 10:19 | 54.47912 | 46.30949 | 14862 ft | 302 kts | 238° |
| 2026-04-26 10:19 | 54.46878 | 46.27837 | 14365 ft | 298 kts | 239° |
| 2026-04-26 10:19 | 54.45869 | 46.24797 | 13871 ft | 294 kts | 239° |
| 2026-04-26 10:19 | 54.44850 | 46.21726 | 13378 ft | 291 kts | 239° |
| 2026-04-26 10:20 | 54.43866 | 46.18759 | 12840 ft | 287 kts | 239° |
| 2026-04-26 10:20 | 54.42885 | 46.15809 | 12303 ft | 284 kts | 239° |
| 2026-04-26 10:20 | 54.41902 | 46.12854 | 11771 ft | 282 kts | 239° |
| 2026-04-26 10:20 | 54.40939 | 46.09908 | 11114 ft | 283 kts | 239° |
| 2026-04-26 10:21 | 54.39984 | 46.06941 | 10461 ft | 285 kts | 240° |
| 2026-04-26 10:21 | 54.39032 | 46.03959 | 9804 ft | 285 kts | 240° |
| 2026-04-26 10:21 | 54.38079 | 46.00967 | 9121 ft | 284 kts | 240° |
| 2026-04-26 10:21 | 54.37133 | 45.97998 | 8492 ft | 281 kts | 240° |
| 2026-04-26 10:22 | 54.36219 | 45.95119 | 8230 ft | 267 kts | 240° |
| 2026-04-26 10:22 | 54.35366 | 45.92431 | 8044 ft | 253 kts | 240° |
| 2026-04-26 10:22 | 54.34549 | 45.89843 | 7885 ft | 240 kts | 240° |
| 2026-04-26 10:22 | 54.33775 | 45.87387 | 7748 ft | 228 kts | 240° |
| 2026-04-26 10:23 | 54.33042 | 45.85054 | 7637 ft | 216 kts | 240° |
| 2026-04-26 10:23 | 54.32345 | 45.82836 | 7512 ft | 206 kts | 239° |
| 2026-04-26 10:23 | 54.31653 | 45.80650 | 6984 ft | 214 kts | 239° |
| 2026-04-26 10:23 | 54.30915 | 45.78349 | 6322 ft | 227 kts | 239° |
| 2026-04-26 10:24 | 54.30173 | 45.75912 | 5790 ft | 232 kts | 242° |
| 2026-04-26 10:24 | 54.29531 | 45.73427 | 5216 ft | 237 kts | 245° |
| 2026-04-26 10:24 | 54.28943 | 45.70688 | 4641 ft | 242 kts | 247° |
| 2026-04-26 10:24 | 54.28460 | 45.68333 | 4117 ft | 245 kts | 247° |
| 2026-04-26 10:25 | 54.27891 | 45.65548 | 3445 ft | 250 kts | 246° |
| 2026-04-26 10:25 | 54.27660 | 45.64430 | 3162 ft | 252 kts | 245° |
| 2026-04-26 10:25 | 54.27491 | 45.63616 | 2987 ft | 254 kts | 245° |
| 2026-04-26 10:25 | 54.26892 | 45.60749 | 2444 ft | 258 kts | 244° |
| 2026-04-26 10:26 | 54.26264 | 45.57777 | 2606 ft | 274 kts | 244° |
| 2026-04-26 10:26 | 54.25631 | 45.54772 | 2954 ft | 255 kts | 245° |
| 2026-04-26 10:26 | 54.25068 | 45.52047 | 3001 ft | 232 kts | 244° |
| 2026-04-26 10:26 | 54.24556 | 45.49550 | 3007 ft | 215 kts | 244° |
| 2026-04-26 10:27 | 54.24080 | 45.47224 | 3007 ft | 199 kts | 244° |
| 2026-04-26 10:27 | 54.23632 | 45.45055 | 3027 ft | 191 kts | 244° |
| 2026-04-26 10:27 | 54.23191 | 45.42941 | 3013 ft | 188 kts | 243° |
| 2026-04-26 10:27 | 54.22751 | 45.40864 | 3010 ft | 189 kts | 243° |
| 2026-04-26 10:28 | 54.22296 | 45.38741 | 2836 ft | 190 kts | 243° |
| 2026-04-26 10:28 | 54.21848 | 45.36642 | 2685 ft | 185 kts | 244° |
| 2026-04-26 10:28 | 54.21414 | 45.34582 | 2431 ft | 184 kts | 242° |
| 2026-04-26 10:28 | 54.20979 | 45.32529 | 2139 ft | 184 kts | 243° |
| 2026-04-26 10:29 | 54.20461 | 45.30557 | 1911 ft | 179 kts | 227° |
| 2026-04-26 10:29 | 54.19595 | 45.29202 | 1770 ft | 159 kts | 212° |
| 2026-04-26 10:29 | 54.18700 | 45.28176 | 1541 ft | 153 kts | 207° |
| 2026-04-26 10:29 | 54.17811 | 45.27199 | 1470 ft | 150 kts | 209° |
| 2026-04-26 10:30 | 54.16983 | 45.26187 | 1280 ft | 141 kts | 211° |
| 2026-04-26 10:30 | 54.16204 | 45.25232 | 1028 ft | 132 kts | 208° |
| 2026-04-26 10:30 | 54.15464 | 45.24482 | 946 ft | 117 kts | 206° |
| 2026-04-26 10:30 | 54.14824 | 45.23789 | 890 ft | 104 kts | 206° |
| 2026-04-26 10:31 | 54.14245 | 45.23165 | 826 ft | 93 kts | 202° |
| 2026-04-26 10:31 | 54.13677 | 45.22547 | 737 ft | 97 kts | 208° |
| 2026-04-26 10:31 | 54.13153 | 45.21981 | 649 ft | 88 kts | 213° |
| 2026-04-26 10:31 | 54.12653 | 45.21426 | 650 ft | 77 kts | 211° |
| 2026-04-26 10:32 | 54.12251 | 45.20967 | 646 ft | 63 kts | 211° |
| 2026-04-26 10:32 | 54.11909 | 45.20599 | 657 ft | 55 kts | 214° |
| 2026-04-26 10:32 | 54.11597 | 45.20246 | 649 ft | 42 kts | 216° |
| 2026-04-26 10:32 | 54.11519 | 45.20110 | 649 ft | 2 kts | 177° |
| 2026-04-26 10:33 | 54.11512 | 45.20175 | 649 ft | 7 kts | 75° |
| 2026-04-26 10:33 | 54.11600 | 45.20270 | 652 ft | 47 kts | 30° |
| 2026-04-26 10:33 | 54.11903 | 45.20586 | 655 ft | 53 kts | 33° |
| 2026-04-26 10:33 | 54.12227 | 45.20941 | 645 ft | 56 kts | 33° |
| 2026-04-26 10:34 | 54.12548 | 45.21306 | 650 ft | 55 kts | 34° |
| 2026-04-26 10:34 | 54.12874 | 45.21664 | 646 ft | 57 kts | 34° |
| 2026-04-26 10:34 | 54.13128 | 45.21934 | 648 ft | 26 kts | 33° |
| 2026-04-26 10:34 | 54.13178 | 45.21958 | 650 ft | 5 kts | 309° |
| 2026-04-26 10:35 | 54.13233 | 45.21807 | 655 ft | 22 kts | 303° |
| 2026-04-26 10:35 | 54.13294 | 45.21653 | 660 ft | 15 kts | 303° |
| 2026-04-26 10:35 | 54.13304 | 45.21627 | 661 ft | 6 kts | 303° |
| 2026-04-26 10:35 | 54.13354 | 45.21527 | 661 ft | 7 kts | 340° |
| 2026-04-26 10:36 | 54.13396 | 45.21566 | 663 ft | 15 kts | 32° |
| 2026-04-26 10:36 | 54.13495 | 45.21674 | 661 ft | 14 kts | 33° |
| 2026-04-26 10:36 | 54.13607 | 45.21797 | 660 ft | 15 kts | 33° |
| 2026-04-26 10:36 | 54.13667 | 45.21859 | 658 ft | 8 kts | 8° |
| 2026-04-26 10:37 | 54.13706 | 45.21801 | 659 ft | 6 kts | 299° |
| 2026-04-26 10:37 | 54.13709 | 45.21792 | 659 ft | 0 kts | 300° |
| 2026-04-26 10:40 | 54.13710 | 45.21790 | 659 ft | 0 kts | 300° |